sensor_id;sensor_type;location;lat;lon;timestamp;P1;durP1;ratioP1;P2;durP2;ratioP2
15261;SDS011;7733;51.554;13.590;2023-07-16T00:01:45;2.73;;;2.53;;
15261;SDS011;7733;51.554;13.590;2023-07-16T00:04:11;2.67;;;2.57;;
15261;SDS011;7733;51.554;13.590;2023-07-16T00:06:36;3.73;;;2.60;;
15261;SDS011;7733;51.554;13.590;2023-07-16T00:09:02;2.60;;;2.40;;
15261;SDS011;7733;51.554;13.590;2023-07-16T00:11:28;3.53;;;2.70;;
15261;SDS011;7733;51.554;13.590;2023-07-16T00:13:54;3.03;;;2.83;;
15261;SDS011;7733;51.554;13.590;2023-07-16T00:16:19;3.10;;;2.90;;
15261;SDS011;7733;51.554;13.590;2023-07-16T00:18:46;3.37;;;3.00;;
15261;SDS011;7733;51.554;13.590;2023-07-16T00:21:12;3.80;;;2.80;;
15261;SDS011;7733;51.554;13.590;2023-07-16T00:23:38;3.77;;;2.67;;
15261;SDS011;7733;51.554;13.590;2023-07-16T00:26:03;3.17;;;2.97;;
15261;SDS011;7733;51.554;13.590;2023-07-16T00:28:29;2.90;;;2.70;;
15261;SDS011;7733;51.554;13.590;2023-07-16T00:30:55;2.77;;;2.63;;
15261;SDS011;7733;51.554;13.590;2023-07-16T00:33:21;3.10;;;2.80;;
15261;SDS011;7733;51.554;13.590;2023-07-16T00:35:47;3.23;;;2.60;;
15261;SDS011;7733;51.554;13.590;2023-07-16T00:38:14;3.00;;;2.80;;
15261;SDS011;7733;51.554;13.590;2023-07-16T00:40:42;2.87;;;2.67;;
15261;SDS011;7733;51.554;13.590;2023-07-16T00:43:08;2.70;;;2.50;;
15261;SDS011;7733;51.554;13.590;2023-07-16T00:45:34;3.00;;;2.70;;
15261;SDS011;7733;51.554;13.590;2023-07-16T00:47:59;6.20;;;2.77;;
15261;SDS011;7733;51.554;13.590;2023-07-16T00:50:25;10.00;;;2.60;;
15261;SDS011;7733;51.554;13.590;2023-07-16T00:52:52;8.77;;;2.70;;
15261;SDS011;7733;51.554;13.590;2023-07-16T00:55:18;2.60;;;2.40;;
15261;SDS011;7733;51.554;13.590;2023-07-16T00:57:44;3.43;;;2.60;;
15261;SDS011;7733;51.554;13.590;2023-07-16T01:00:11;3.17;;;3.00;;
15261;SDS011;7733;51.554;13.590;2023-07-16T01:02:37;5.80;;;5.30;;
15261;SDS011;7733;51.554;13.590;2023-07-16T01:05:04;3.93;;;2.27;;
15261;SDS011;7733;51.554;13.590;2023-07-16T01:07:29;2.20;;;2.10;;
15261;SDS011;7733;51.554;13.590;2023-07-16T01:09:57;2.47;;;2.27;;
15261;SDS011;7733;51.554;13.590;2023-07-16T01:12:24;2.20;;;2.10;;
15261;SDS011;7733;51.554;13.590;2023-07-16T01:14:52;2.10;;;2.00;;
15261;SDS011;7733;51.554;13.590;2023-07-16T01:17:19;2.10;;;1.87;;
15261;SDS011;7733;51.554;13.590;2023-07-16T01:19:44;2.27;;;2.10;;
15261;SDS011;7733;51.554;13.590;2023-07-16T01:22:22;2.40;;;2.20;;
15261;SDS011;7733;51.554;13.590;2023-07-16T01:27:59;2.00;;;1.90;;
15261;SDS011;7733;51.554;13.590;2023-07-16T01:30:44;2.13;;;1.93;;
15261;SDS011;7733;51.554;13.590;2023-07-16T01:33:12;2.00;;;1.90;;
15261;SDS011;7733;51.554;13.590;2023-07-16T01:35:41;2.40;;;2.20;;
15261;SDS011;7733;51.554;13.590;2023-07-16T01:38:09;2.20;;;2.00;;
15261;SDS011;7733;51.554;13.590;2023-07-16T01:40:36;4.63;;;2.20;;
15261;SDS011;7733;51.554;13.590;2023-07-16T01:43:01;2.40;;;2.20;;
15261;SDS011;7733;51.554;13.590;2023-07-16T01:45:27;2.37;;;1.80;;
15261;SDS011;7733;51.554;13.590;2023-07-16T01:48:29;2.03;;;1.90;;
15261;SDS011;7733;51.554;13.590;2023-07-16T01:51:00;4.10;;;1.80;;
15261;SDS011;7733;51.554;13.590;2023-07-16T01:53:27;2.30;;;2.10;;
15261;SDS011;7733;51.554;13.590;2023-07-16T01:55:53;2.60;;;2.10;;
15261;SDS011;7733;51.554;13.590;2023-07-16T01:58:19;2.07;;;1.90;;
15261;SDS011;7733;51.554;13.590;2023-07-16T02:00:45;2.00;;;1.90;;
15261;SDS011;7733;51.554;13.590;2023-07-16T02:03:11;1.97;;;1.87;;
15261;SDS011;7733;51.554;13.590;2023-07-16T02:05:36;1.87;;;1.77;;
15261;SDS011;7733;51.554;13.590;2023-07-16T02:08:02;2.13;;;2.00;;
15261;SDS011;7733;51.554;13.590;2023-07-16T02:10:28;2.20;;;1.73;;
15261;SDS011;7733;51.554;13.590;2023-07-16T02:12:54;2.00;;;1.90;;
15261;SDS011;7733;51.554;13.590;2023-07-16T02:15:19;1.80;;;1.70;;
15261;SDS011;7733;51.554;13.590;2023-07-16T02:17:45;1.90;;;1.80;;
15261;SDS011;7733;51.554;13.590;2023-07-16T02:20:12;2.20;;;2.10;;
15261;SDS011;7733;51.554;13.590;2023-07-16T02:22:38;1.90;;;1.90;;
15261;SDS011;7733;51.554;13.590;2023-07-16T02:25:05;2.70;;;2.07;;
15261;SDS011;7733;51.554;13.590;2023-07-16T02:27:31;1.90;;;1.80;;
15261;SDS011;7733;51.554;13.590;2023-07-16T02:29:57;2.33;;;2.00;;
15261;SDS011;7733;51.554;13.590;2023-07-16T02:32:23;2.43;;;1.87;;
15261;SDS011;7733;51.554;13.590;2023-07-16T02:34:49;4.87;;;2.07;;
15261;SDS011;7733;51.554;13.590;2023-07-16T02:37:14;2.00;;;1.90;;
15261;SDS011;7733;51.554;13.590;2023-07-16T02:39:41;1.93;;;1.83;;
15261;SDS011;7733;51.554;13.590;2023-07-16T02:42:10;3.07;;;2.30;;
15261;SDS011;7733;51.554;13.590;2023-07-16T02:44:36;2.00;;;1.90;;
15261;SDS011;7733;51.554;13.590;2023-07-16T02:47:06;2.77;;;2.10;;
15261;SDS011;7733;51.554;13.590;2023-07-16T02:49:32;2.10;;;2.00;;
15261;SDS011;7733;51.554;13.590;2023-07-16T02:51:58;2.13;;;2.03;;
15261;SDS011;7733;51.554;13.590;2023-07-16T02:54:24;2.17;;;1.97;;
15261;SDS011;7733;51.554;13.590;2023-07-16T02:56:49;3.37;;;2.40;;
15261;SDS011;7733;51.554;13.590;2023-07-16T02:59:15;2.03;;;1.93;;
15261;SDS011;7733;51.554;13.590;2023-07-16T03:01:41;2.73;;;1.90;;
15261;SDS011;7733;51.554;13.590;2023-07-16T03:04:07;2.57;;;2.37;;
15261;SDS011;7733;51.554;13.590;2023-07-16T03:06:32;2.43;;;2.30;;
15261;SDS011;7733;51.554;13.590;2023-07-16T03:08:58;2.37;;;2.10;;
15261;SDS011;7733;51.554;13.590;2023-07-16T03:11:24;2.03;;;1.93;;
15261;SDS011;7733;51.554;13.590;2023-07-16T03:13:49;2.53;;;2.33;;
15261;SDS011;7733;51.554;13.590;2023-07-16T03:16:15;2.17;;;2.07;;
15261;SDS011;7733;51.554;13.590;2023-07-16T03:18:41;2.10;;;2.00;;
15261;SDS011;7733;51.554;13.590;2023-07-16T03:21:07;2.13;;;1.93;;
15261;SDS011;7733;51.554;13.590;2023-07-16T03:23:33;2.83;;;2.40;;
15261;SDS011;7733;51.554;13.590;2023-07-16T03:25:58;2.37;;;2.20;;
15261;SDS011;7733;51.554;13.590;2023-07-16T03:28:24;2.30;;;2.00;;
15261;SDS011;7733;51.554;13.590;2023-07-16T03:30:50;2.10;;;2.00;;
15261;SDS011;7733;51.554;13.590;2023-07-16T03:33:16;2.23;;;2.13;;
15261;SDS011;7733;51.554;13.590;2023-07-16T03:35:43;2.43;;;2.23;;
15261;SDS011;7733;51.554;13.590;2023-07-16T03:38:10;2.30;;;2.10;;
15261;SDS011;7733;51.554;13.590;2023-07-16T03:40:36;2.17;;;2.03;;
15261;SDS011;7733;51.554;13.590;2023-07-16T03:43:02;2.77;;;1.93;;
15261;SDS011;7733;51.554;13.590;2023-07-16T03:45:28;2.10;;;2.00;;
15261;SDS011;7733;51.554;13.590;2023-07-16T03:47:54;1.90;;;1.70;;
15261;SDS011;7733;51.554;13.590;2023-07-16T03:50:20;2.10;;;2.00;;
15261;SDS011;7733;51.554;13.590;2023-07-16T03:52:46;1.77;;;1.67;;
15261;SDS011;7733;51.554;13.590;2023-07-16T03:55:12;2.40;;;1.83;;
15261;SDS011;7733;51.554;13.590;2023-07-16T03:57:38;2.00;;;1.90;;
15261;SDS011;7733;51.554;13.590;2023-07-16T04:00:04;1.73;;;1.63;;
15261;SDS011;7733;51.554;13.590;2023-07-16T04:02:33;1.90;;;1.80;;
15261;SDS011;7733;51.554;13.590;2023-07-16T04:04:58;1.60;;;1.50;;
15261;SDS011;7733;51.554;13.590;2023-07-16T04:07:24;1.70;;;1.60;;
15261;SDS011;7733;51.554;13.590;2023-07-16T04:09:50;1.43;;;1.43;;
15261;SDS011;7733;51.554;13.590;2023-07-16T04:12:16;1.50;;;1.40;;
15261;SDS011;7733;51.554;13.590;2023-07-16T04:14:42;1.60;;;1.50;;
15261;SDS011;7733;51.554;13.590;2023-07-16T04:17:08;1.67;;;1.57;;
15261;SDS011;7733;51.554;13.590;2023-07-16T04:19:34;2.60;;;1.63;;
15261;SDS011;7733;51.554;13.590;2023-07-16T04:22:00;1.87;;;1.77;;
15261;SDS011;7733;51.554;13.590;2023-07-16T04:24:26;2.53;;;1.27;;
15261;SDS011;7733;51.554;13.590;2023-07-16T04:26:52;1.53;;;1.43;;
15261;SDS011;7733;51.554;13.590;2023-07-16T04:29:19;1.73;;;1.63;;
15261;SDS011;7733;51.554;13.590;2023-07-16T04:31:45;1.73;;;1.40;;
15261;SDS011;7733;51.554;13.590;2023-07-16T04:34:10;1.53;;;1.50;;
15261;SDS011;7733;51.554;13.590;2023-07-16T04:36:36;1.60;;;1.50;;
15261;SDS011;7733;51.554;13.590;2023-07-16T04:39:03;1.70;;;1.60;;
15261;SDS011;7733;51.554;13.590;2023-07-16T04:41:29;1.50;;;1.40;;
15261;SDS011;7733;51.554;13.590;2023-07-16T04:43:55;1.83;;;1.33;;
15261;SDS011;7733;51.554;13.590;2023-07-16T04:46:21;1.60;;;1.50;;
15261;SDS011;7733;51.554;13.590;2023-07-16T04:48:46;1.63;;;1.33;;
15261;SDS011;7733;51.554;13.590;2023-07-16T04:51:12;1.63;;;1.53;;
15261;SDS011;7733;51.554;13.590;2023-07-16T04:53:38;1.70;;;1.60;;
15261;SDS011;7733;51.554;13.590;2023-07-16T04:56:04;1.60;;;1.50;;
15261;SDS011;7733;51.554;13.590;2023-07-16T04:58:37;1.60;;;1.50;;
15261;SDS011;7733;51.554;13.590;2023-07-16T05:01:03;1.77;;;1.63;;
15261;SDS011;7733;51.554;13.590;2023-07-16T05:03:28;1.70;;;1.60;;
15261;SDS011;7733;51.554;13.590;2023-07-16T05:05:54;2.50;;;1.70;;
15261;SDS011;7733;51.554;13.590;2023-07-16T05:08:20;1.70;;;1.60;;
15261;SDS011;7733;51.554;13.590;2023-07-16T05:10:46;2.33;;;1.73;;
15261;SDS011;7733;51.554;13.590;2023-07-16T05:13:12;2.20;;;1.50;;
15261;SDS011;7733;51.554;13.590;2023-07-16T05:15:40;1.50;;;1.50;;
15261;SDS011;7733;51.554;13.590;2023-07-16T05:18:08;2.60;;;1.83;;
15261;SDS011;7733;51.554;13.590;2023-07-16T05:20:33;1.80;;;1.70;;
15261;SDS011;7733;51.554;13.590;2023-07-16T05:22:59;1.60;;;1.50;;
15261;SDS011;7733;51.554;13.590;2023-07-16T05:25:25;1.93;;;1.83;;
15261;SDS011;7733;51.554;13.590;2023-07-16T05:27:51;2.03;;;1.80;;
15261;SDS011;7733;51.554;13.590;2023-07-16T05:30:17;1.70;;;1.60;;
15261;SDS011;7733;51.554;13.590;2023-07-16T05:32:42;1.80;;;1.80;;
15261;SDS011;7733;51.554;13.590;2023-07-16T05:35:08;1.73;;;1.63;;
15261;SDS011;7733;51.554;13.590;2023-07-16T05:37:34;1.90;;;1.80;;
15261;SDS011;7733;51.554;13.590;2023-07-16T05:40:00;2.10;;;2.00;;
15261;SDS011;7733;51.554;13.590;2023-07-16T05:42:26;2.00;;;1.90;;
15261;SDS011;7733;51.554;13.590;2023-07-16T05:44:51;1.80;;;1.70;;
15261;SDS011;7733;51.554;13.590;2023-07-16T05:47:17;2.70;;;2.10;;
15261;SDS011;7733;51.554;13.590;2023-07-16T05:49:43;1.90;;;1.80;;
15261;SDS011;7733;51.554;13.590;2023-07-16T05:52:09;1.53;;;1.43;;
15261;SDS011;7733;51.554;13.590;2023-07-16T05:54:35;1.87;;;1.73;;
15261;SDS011;7733;51.554;13.590;2023-07-16T05:57:01;2.10;;;1.90;;
15261;SDS011;7733;51.554;13.590;2023-07-16T05:59:26;1.70;;;1.60;;
15261;SDS011;7733;51.554;13.590;2023-07-16T06:01:52;1.70;;;1.60;;
15261;SDS011;7733;51.554;13.590;2023-07-16T06:04:18;1.87;;;1.77;;
15261;SDS011;7733;51.554;13.590;2023-07-16T06:06:44;2.03;;;1.90;;
15261;SDS011;7733;51.554;13.590;2023-07-16T06:09:09;1.90;;;1.50;;
15261;SDS011;7733;51.554;13.590;2023-07-16T06:11:35;1.70;;;1.60;;
15261;SDS011;7733;51.554;13.590;2023-07-16T06:14:01;2.10;;;1.70;;
15261;SDS011;7733;51.554;13.590;2023-07-16T06:16:26;1.43;;;1.43;;
15261;SDS011;7733;51.554;13.590;2023-07-16T06:18:52;2.00;;;1.90;;
15261;SDS011;7733;51.554;13.590;2023-07-16T06:21:18;1.53;;;1.40;;
15261;SDS011;7733;51.554;13.590;2023-07-16T06:23:44;1.50;;;1.40;;
15261;SDS011;7733;51.554;13.590;2023-07-16T06:26:09;1.53;;;1.43;;
15261;SDS011;7733;51.554;13.590;2023-07-16T06:28:35;1.43;;;1.43;;
15261;SDS011;7733;51.554;13.590;2023-07-16T06:31:01;1.60;;;1.57;;
15261;SDS011;7733;51.554;13.590;2023-07-16T06:33:27;1.33;;;1.33;;
15261;SDS011;7733;51.554;13.590;2023-07-16T06:35:53;1.63;;;1.53;;
15261;SDS011;7733;51.554;13.590;2023-07-16T06:38:19;1.50;;;1.50;;
15261;SDS011;7733;51.554;13.590;2023-07-16T06:40:48;1.37;;;1.30;;
15261;SDS011;7733;51.554;13.590;2023-07-16T06:43:15;2.10;;;1.50;;
15261;SDS011;7733;51.554;13.590;2023-07-16T06:45:42;1.40;;;1.40;;
15261;SDS011;7733;51.554;13.590;2023-07-16T06:48:08;1.53;;;1.47;;
15261;SDS011;7733;51.554;13.590;2023-07-16T06:50:34;1.43;;;1.43;;
15261;SDS011;7733;51.554;13.590;2023-07-16T06:52:59;2.07;;;1.97;;
15261;SDS011;7733;51.554;13.590;2023-07-16T06:55:25;1.70;;;1.60;;
15261;SDS011;7733;51.554;13.590;2023-07-16T06:57:51;1.93;;;1.77;;
15261;SDS011;7733;51.554;13.590;2023-07-16T07:00:17;1.70;;;1.60;;
15261;SDS011;7733;51.554;13.590;2023-07-16T07:02:43;1.90;;;1.60;;
15261;SDS011;7733;51.554;13.590;2023-07-16T07:05:09;1.77;;;1.67;;
15261;SDS011;7733;51.554;13.590;2023-07-16T07:07:35;2.20;;;1.50;;
15261;SDS011;7733;51.554;13.590;2023-07-16T07:10:01;1.60;;;1.50;;
15261;SDS011;7733;51.554;13.590;2023-07-16T07:12:27;1.80;;;1.70;;
15261;SDS011;7733;51.554;13.590;2023-07-16T07:14:52;1.43;;;1.30;;
15261;SDS011;7733;51.554;13.590;2023-07-16T07:17:18;1.60;;;1.53;;
15261;SDS011;7733;51.554;13.590;2023-07-16T07:19:44;2.80;;;2.60;;
15261;SDS011;7733;51.554;13.590;2023-07-16T07:22:11;2.53;;;2.43;;
15261;SDS011;7733;51.554;13.590;2023-07-16T07:24:36;1.47;;;1.47;;
15261;SDS011;7733;51.554;13.590;2023-07-16T07:27:02;2.27;;;1.60;;
15261;SDS011;7733;51.554;13.590;2023-07-16T07:29:28;1.57;;;1.47;;
15261;SDS011;7733;51.554;13.590;2023-07-16T07:31:54;1.30;;;1.20;;
15261;SDS011;7733;51.554;13.590;2023-07-16T07:34:20;1.50;;;1.40;;
15261;SDS011;7733;51.554;13.590;2023-07-16T07:36:45;1.80;;;1.47;;
15261;SDS011;7733;51.554;13.590;2023-07-16T07:39:11;2.70;;;1.57;;
15261;SDS011;7733;51.554;13.590;2023-07-16T07:41:38;2.60;;;1.60;;
15261;SDS011;7733;51.554;13.590;2023-07-16T07:44:04;1.80;;;1.70;;
15261;SDS011;7733;51.554;13.590;2023-07-16T07:46:30;1.70;;;1.60;;
15261;SDS011;7733;51.554;13.590;2023-07-16T07:48:55;1.53;;;1.43;;
15261;SDS011;7733;51.554;13.590;2023-07-16T07:51:21;1.67;;;1.57;;
15261;SDS011;7733;51.554;13.590;2023-07-16T07:53:47;1.43;;;1.33;;
15261;SDS011;7733;51.554;13.590;2023-07-16T07:56:13;1.60;;;1.40;;
15261;SDS011;7733;51.554;13.590;2023-07-16T07:58:39;1.73;;;1.63;;
15261;SDS011;7733;51.554;13.590;2023-07-16T08:01:08;2.37;;;1.67;;
15261;SDS011;7733;51.554;13.590;2023-07-16T08:03:34;2.87;;;1.83;;
15261;SDS011;7733;51.554;13.590;2023-07-16T08:06:00;1.80;;;1.70;;
15261;SDS011;7733;51.554;13.590;2023-07-16T08:08:26;2.30;;;1.40;;
15261;SDS011;7733;51.554;13.590;2023-07-16T08:10:52;1.60;;;1.50;;
15261;SDS011;7733;51.554;13.590;2023-07-16T08:13:19;2.43;;;1.60;;
15261;SDS011;7733;51.554;13.590;2023-07-16T08:15:45;1.47;;;1.30;;
15261;SDS011;7733;51.554;13.590;2023-07-16T08:18:12;1.60;;;1.50;;
15261;SDS011;7733;51.554;13.590;2023-07-16T08:20:38;1.43;;;1.33;;
15261;SDS011;7733;51.554;13.590;2023-07-16T08:23:06;2.07;;;1.20;;
15261;SDS011;7733;51.554;13.590;2023-07-16T08:25:32;2.47;;;1.40;;
15261;SDS011;7733;51.554;13.590;2023-07-16T08:27:57;1.93;;;1.80;;
15261;SDS011;7733;51.554;13.590;2023-07-16T08:30:23;3.70;;;1.57;;
15261;SDS011;7733;51.554;13.590;2023-07-16T08:32:49;1.50;;;1.40;;
15261;SDS011;7733;51.554;13.590;2023-07-16T08:35:15;2.27;;;1.53;;
15261;SDS011;7733;51.554;13.590;2023-07-16T08:37:42;1.60;;;1.50;;
15261;SDS011;7733;51.554;13.590;2023-07-16T08:40:09;1.50;;;1.40;;
15261;SDS011;7733;51.554;13.590;2023-07-16T08:42:37;1.67;;;1.43;;
15261;SDS011;7733;51.554;13.590;2023-07-16T08:45:06;1.50;;;1.40;;
15261;SDS011;7733;51.554;13.590;2023-07-16T08:47:35;2.63;;;1.87;;
15261;SDS011;7733;51.554;13.590;2023-07-16T08:50:01;2.10;;;1.50;;
15261;SDS011;7733;51.554;13.590;2023-07-16T08:52:28;2.47;;;1.40;;
15261;SDS011;7733;51.554;13.590;2023-07-16T08:54:55;1.63;;;1.53;;
15261;SDS011;7733;51.554;13.590;2023-07-16T08:57:21;1.80;;;1.70;;
15261;SDS011;7733;51.554;13.590;2023-07-16T08:59:48;2.27;;;1.50;;
15261;SDS011;7733;51.554;13.590;2023-07-16T09:02:17;2.10;;;1.50;;
15261;SDS011;7733;51.554;13.590;2023-07-16T09:04:45;2.10;;;1.37;;
15261;SDS011;7733;51.554;13.590;2023-07-16T09:07:13;3.00;;;1.50;;
15261;SDS011;7733;51.554;13.590;2023-07-16T09:09:40;2.20;;;1.80;;
15261;SDS011;7733;51.554;13.590;2023-07-16T09:12:06;3.03;;;1.73;;
15261;SDS011;7733;51.554;13.590;2023-07-16T09:14:37;2.60;;;1.70;;
15261;SDS011;7733;51.554;13.590;2023-07-16T09:17:05;1.67;;;1.33;;
15261;SDS011;7733;51.554;13.590;2023-07-16T09:19:34;2.67;;;1.37;;
15261;SDS011;7733;51.554;13.590;2023-07-16T09:22:01;1.63;;;1.50;;
15261;SDS011;7733;51.554;13.590;2023-07-16T09:24:26;1.77;;;1.40;;
15261;SDS011;7733;51.554;13.590;2023-07-16T09:26:54;1.73;;;1.50;;
15261;SDS011;7733;51.554;13.590;2023-07-16T09:29:20;1.50;;;1.40;;
15261;SDS011;7733;51.554;13.590;2023-07-16T09:31:59;1.30;;;1.20;;
15261;SDS011;7733;51.554;13.590;2023-07-16T09:34:30;1.63;;;1.53;;
15261;SDS011;7733;51.554;13.590;2023-07-16T09:36:57;2.20;;;1.50;;
15261;SDS011;7733;51.554;13.590;2023-07-16T09:39:25;15.30;;;1.80;;
15261;SDS011;7733;51.554;13.590;2023-07-16T09:41:52;1.47;;;1.37;;
15261;SDS011;7733;51.554;13.590;2023-07-16T09:44:18;1.77;;;1.63;;
15261;SDS011;7733;51.554;13.590;2023-07-16T09:46:45;2.17;;;1.83;;
15261;SDS011;7733;51.554;13.590;2023-07-16T09:49:11;2.13;;;1.40;;
15261;SDS011;7733;51.554;13.590;2023-07-16T09:51:40;1.80;;;1.40;;
15261;SDS011;7733;51.554;13.590;2023-07-16T09:54:08;4.10;;;1.23;;
15261;SDS011;7733;51.554;13.590;2023-07-16T09:56:46;1.73;;;1.40;;
15261;SDS011;7733;51.554;13.590;2023-07-16T09:59:16;2.60;;;2.40;;
15261;SDS011;7733;51.554;13.590;2023-07-16T10:01:48;2.60;;;1.67;;
15261;SDS011;7733;51.554;13.590;2023-07-16T10:04:16;1.50;;;1.40;;
15261;SDS011;7733;51.554;13.590;2023-07-16T10:06:54;1.70;;;1.53;;
15261;SDS011;7733;51.554;13.590;2023-07-16T10:12:21;2.27;;;1.40;;
15261;SDS011;7733;51.554;13.590;2023-07-16T10:14:50;1.47;;;1.37;;
15261;SDS011;7733;51.554;13.590;2023-07-16T10:17:18;1.60;;;1.40;;
15261;SDS011;7733;51.554;13.590;2023-07-16T10:22:31;2.10;;;1.90;;
15261;SDS011;7733;51.554;13.590;2023-07-16T10:25:21;4.10;;;1.60;;
15261;SDS011;7733;51.554;13.590;2023-07-16T10:27:50;2.57;;;1.53;;
15261;SDS011;7733;51.554;13.590;2023-07-16T10:30:19;1.63;;;1.53;;
15261;SDS011;7733;51.554;13.590;2023-07-16T10:32:45;1.60;;;1.50;;
15261;SDS011;7733;51.554;13.590;2023-07-16T10:35:12;3.27;;;1.63;;
15261;SDS011;7733;51.554;13.590;2023-07-16T10:37:38;1.80;;;1.70;;
15261;SDS011;7733;51.554;13.590;2023-07-16T10:40:05;1.77;;;1.67;;
15261;SDS011;7733;51.554;13.590;2023-07-16T10:42:36;1.57;;;1.47;;
15261;SDS011;7733;51.554;13.590;2023-07-16T10:45:06;2.77;;;1.70;;
15261;SDS011;7733;51.554;13.590;2023-07-16T10:47:33;1.70;;;1.60;;
15261;SDS011;7733;51.554;13.590;2023-07-16T10:50:15;1.70;;;1.60;;
15261;SDS011;7733;51.554;13.590;2023-07-16T10:52:41;1.67;;;1.50;;
15261;SDS011;7733;51.554;13.590;2023-07-16T10:55:07;2.57;;;1.70;;
15261;SDS011;7733;51.554;13.590;2023-07-16T10:57:32;2.37;;;1.80;;
15261;SDS011;7733;51.554;13.590;2023-07-16T10:59:58;2.47;;;1.50;;
15261;SDS011;7733;51.554;13.590;2023-07-16T11:02:25;1.67;;;1.53;;
15261;SDS011;7733;51.554;13.590;2023-07-16T11:04:51;3.73;;;1.67;;
15261;SDS011;7733;51.554;13.590;2023-07-16T11:07:18;2.20;;;1.50;;
15261;SDS011;7733;51.554;13.590;2023-07-16T11:09:47;2.10;;;1.70;;
15261;SDS011;7733;51.554;13.590;2023-07-16T11:12:20;1.50;;;1.40;;
15261;SDS011;7733;51.554;13.590;2023-07-16T11:14:54;1.70;;;1.60;;
15261;SDS011;7733;51.554;13.590;2023-07-16T11:17:23;1.87;;;1.53;;
15261;SDS011;7733;51.554;13.590;2023-07-16T11:19:52;1.80;;;1.50;;
15261;SDS011;7733;51.554;13.590;2023-07-16T11:22:24;1.67;;;1.50;;
15261;SDS011;7733;51.554;13.590;2023-07-16T11:24:52;2.17;;;1.43;;
15261;SDS011;7733;51.554;13.590;2023-07-16T11:27:19;1.40;;;1.40;;
15261;SDS011;7733;51.554;13.590;2023-07-16T11:29:52;1.53;;;1.43;;
15261;SDS011;7733;51.554;13.590;2023-07-16T11:32:28;3.07;;;1.73;;
15261;SDS011;7733;51.554;13.590;2023-07-16T11:35:17;1.80;;;1.70;;
15261;SDS011;7733;51.554;13.590;2023-07-16T11:37:45;1.77;;;1.50;;
15261;SDS011;7733;51.554;13.590;2023-07-16T11:40:15;1.70;;;1.60;;
15261;SDS011;7733;51.554;13.590;2023-07-16T11:42:43;1.63;;;1.47;;
15261;SDS011;7733;51.554;13.590;2023-07-16T11:45:17;2.97;;;1.83;;
15261;SDS011;7733;51.554;13.590;2023-07-16T11:47:45;3.57;;;2.00;;
15261;SDS011;7733;51.554;13.590;2023-07-16T11:50:11;2.03;;;1.83;;
15261;SDS011;7733;51.554;13.590;2023-07-16T11:52:38;1.70;;;1.60;;
15261;SDS011;7733;51.554;13.590;2023-07-16T11:55:04;1.73;;;1.63;;
15261;SDS011;7733;51.554;13.590;2023-07-16T11:57:31;4.43;;;1.90;;
15261;SDS011;7733;51.554;13.590;2023-07-16T11:59:56;2.03;;;1.60;;
15261;SDS011;7733;51.554;13.590;2023-07-16T12:02:22;2.40;;;1.83;;
15261;SDS011;7733;51.554;13.590;2023-07-16T12:04:50;2.73;;;1.50;;
15261;SDS011;7733;51.554;13.590;2023-07-16T12:07:29;2.13;;;1.70;;
15261;SDS011;7733;51.554;13.590;2023-07-16T12:10:05;1.50;;;1.40;;
15261;SDS011;7733;51.554;13.590;2023-07-16T12:12:32;1.87;;;1.77;;
15261;SDS011;7733;51.554;13.590;2023-07-16T12:15:03;2.27;;;1.60;;
15261;SDS011;7733;51.554;13.590;2023-07-16T12:17:32;2.10;;;1.73;;
15261;SDS011;7733;51.554;13.590;2023-07-16T12:19:59;1.90;;;1.60;;
15261;SDS011;7733;51.554;13.590;2023-07-16T12:22:26;1.60;;;1.50;;
15261;SDS011;7733;51.554;13.590;2023-07-16T12:24:52;2.40;;;1.90;;
15261;SDS011;7733;51.554;13.590;2023-07-16T12:27:18;2.40;;;1.60;;
15261;SDS011;7733;51.554;13.590;2023-07-16T12:29:45;1.80;;;1.70;;
15261;SDS011;7733;51.554;13.590;2023-07-16T12:32:11;1.60;;;1.50;;
15261;SDS011;7733;51.554;13.590;2023-07-16T12:34:38;2.37;;;1.97;;
15261;SDS011;7733;51.554;13.590;2023-07-16T12:37:04;2.07;;;1.97;;
15261;SDS011;7733;51.554;13.590;2023-07-16T12:39:30;1.67;;;1.60;;
15261;SDS011;7733;51.554;13.590;2023-07-16T12:41:56;2.77;;;1.83;;
15261;SDS011;7733;51.554;13.590;2023-07-16T12:44:22;1.80;;;1.70;;
15261;SDS011;7733;51.554;13.590;2023-07-16T12:46:47;2.10;;;1.73;;
15261;SDS011;7733;51.554;13.590;2023-07-16T12:49:13;1.80;;;1.70;;
15261;SDS011;7733;51.554;13.590;2023-07-16T12:51:40;2.00;;;1.90;;
15261;SDS011;7733;51.554;13.590;2023-07-16T12:54:05;1.77;;;1.33;;
15261;SDS011;7733;51.554;13.590;2023-07-16T12:56:31;3.40;;;1.70;;
15261;SDS011;7733;51.554;13.590;2023-07-16T12:58:57;2.83;;;1.90;;
15261;SDS011;7733;51.554;13.590;2023-07-16T13:01:23;2.53;;;1.67;;
15261;SDS011;7733;51.554;13.590;2023-07-16T13:03:49;2.10;;;1.90;;
15261;SDS011;7733;51.554;13.590;2023-07-16T13:06:15;2.97;;;1.80;;
15261;SDS011;7733;51.554;13.590;2023-07-16T13:08:40;2.17;;;2.00;;
15261;SDS011;7733;51.554;13.590;2023-07-16T13:11:06;1.83;;;1.73;;
15261;SDS011;7733;51.554;13.590;2023-07-16T13:13:32;2.70;;;1.90;;
15261;SDS011;7733;51.554;13.590;2023-07-16T13:15:58;2.03;;;1.93;;
15261;SDS011;7733;51.554;13.590;2023-07-16T13:18:23;3.93;;;2.00;;
15261;SDS011;7733;51.554;13.590;2023-07-16T13:20:49;2.00;;;1.90;;
15261;SDS011;7733;51.554;13.590;2023-07-16T13:23:15;2.07;;;1.70;;
15261;SDS011;7733;51.554;13.590;2023-07-16T13:25:41;3.83;;;1.90;;
15261;SDS011;7733;51.554;13.590;2023-07-16T13:28:07;1.80;;;1.70;;
15261;SDS011;7733;51.554;13.590;2023-07-16T13:30:33;2.90;;;1.80;;
15261;SDS011;7733;51.554;13.590;2023-07-16T13:32:59;2.83;;;2.20;;
15261;SDS011;7733;51.554;13.590;2023-07-16T13:35:26;2.80;;;2.07;;
15261;SDS011;7733;51.554;13.590;2023-07-16T13:37:52;2.13;;;1.50;;
15261;SDS011;7733;51.554;13.590;2023-07-16T13:40:18;2.10;;;1.90;;
15261;SDS011;7733;51.554;13.590;2023-07-16T13:42:46;2.13;;;2.00;;
15261;SDS011;7733;51.554;13.590;2023-07-16T13:45:12;13.17;;;2.50;;
15261;SDS011;7733;51.554;13.590;2023-07-16T13:47:38;2.57;;;1.90;;
15261;SDS011;7733;51.554;13.590;2023-07-16T13:50:04;1.90;;;1.80;;
15261;SDS011;7733;51.554;13.590;2023-07-16T13:52:30;1.77;;;1.67;;
15261;SDS011;7733;51.554;13.590;2023-07-16T13:54:56;1.77;;;1.67;;
15261;SDS011;7733;51.554;13.590;2023-07-16T13:57:22;4.47;;;1.70;;
15261;SDS011;7733;51.554;13.590;2023-07-16T13:59:48;3.37;;;2.70;;
15261;SDS011;7733;51.554;13.590;2023-07-16T14:02:14;3.07;;;2.33;;
15261;SDS011;7733;51.554;13.590;2023-07-16T14:04:39;2.10;;;2.00;;
15261;SDS011;7733;51.554;13.590;2023-07-16T14:07:05;3.47;;;2.00;;
15261;SDS011;7733;51.554;13.590;2023-07-16T14:09:31;2.03;;;1.73;;
15261;SDS011;7733;51.554;13.590;2023-07-16T14:11:56;2.00;;;1.90;;
15261;SDS011;7733;51.554;13.590;2023-07-16T14:14:22;2.20;;;2.00;;
15261;SDS011;7733;51.554;13.590;2023-07-16T14:16:48;2.17;;;2.07;;
15261;SDS011;7733;51.554;13.590;2023-07-16T14:19:14;2.03;;;1.93;;
15261;SDS011;7733;51.554;13.590;2023-07-16T14:21:40;2.30;;;2.03;;
15261;SDS011;7733;51.554;13.590;2023-07-16T14:24:05;1.87;;;1.70;;
15261;SDS011;7733;51.554;13.590;2023-07-16T14:26:31;2.97;;;2.27;;
15261;SDS011;7733;51.554;13.590;2023-07-16T14:28:58;2.90;;;2.03;;
15261;SDS011;7733;51.554;13.590;2023-07-16T14:31:24;3.27;;;2.10;;
15261;SDS011;7733;51.554;13.590;2023-07-16T14:33:50;2.47;;;2.20;;
15261;SDS011;7733;51.554;13.590;2023-07-16T14:36:16;2.10;;;2.00;;
15261;SDS011;7733;51.554;13.590;2023-07-16T14:38:42;2.53;;;2.10;;
15261;SDS011;7733;51.554;13.590;2023-07-16T14:41:08;2.53;;;2.27;;
15261;SDS011;7733;51.554;13.590;2023-07-16T14:43:35;3.40;;;2.20;;
15261;SDS011;7733;51.554;13.590;2023-07-16T14:46:01;2.37;;;2.17;;
15261;SDS011;7733;51.554;13.590;2023-07-16T14:48:28;2.20;;;2.00;;
15261;SDS011;7733;51.554;13.590;2023-07-16T14:50:54;2.80;;;2.57;;
15261;SDS011;7733;51.554;13.590;2023-07-16T14:53:20;2.60;;;2.40;;
15261;SDS011;7733;51.554;13.590;2023-07-16T14:55:46;2.30;;;2.20;;